Time;durP1;ratioP1;P1;durP2;ratioP2;P2;SDS_P1;SDS_P2;PMS_P1;PMS_P2;Temp;Humidity;BMP_temperature;BMP_pressure;BME280_temperature;BME280_humidity;BME280_pressure;Samples;Min_cycle;Max_cycle;Signal;HPM_P1;HPM_P2
2023/01/15 00:01:47;;;;;;;;;0.00;0.00;;;;;8.21;89.90;98209.94;5098699;28;8857;-58
2023/01/15 00:04:14;;;;;;;;;0.00;0.00;;;;;7.88;89.10;98208.69;5098301;28;8810;-58
2023/01/15 00:06:43;;;;;;;;;0.00;0.00;;;;;7.65;89.62;98216.34;5099086;28;8826;-58
2023/01/15 00:09:10;;;;;;;;;0.00;0.00;;;;;7.49;90.11;98216.97;5098555;28;8826;-58
2023/01/15 00:11:40;;;;;;;;;0.00;0.00;;;;;7.34;89.99;98226.34;5098376;28;8834;-57
2023/01/15 00:14:08;;;;;;;;;0.00;0.00;;;;;7.21;90.30;98233.75;5098148;28;8841;-56
2023/01/15 00:16:35;;;;;;;;;0.00;0.00;;;;;7.04;90.32;98234.50;5099219;28;8818;-56
2023/01/15 00:19:07;;;;;;;;;0.00;0.00;;;;;6.94;90.66;98240.78;5099120;28;8939;-57
2023/01/15 00:21:34;;;;;;;;;0.50;0.50;;;;;6.82;90.52;98245.38;5099134;28;8838;-57
2023/01/15 00:29:33;;;;;;;;;0.00;0.00;;;;;6.60;91.29;98243.03;5097432;28;8843;-58
2023/01/15 00:32:01;;;;;;;;;0.00;0.00;;;;;6.54;91.16;98253.34;5098720;28;8838;-58
2023/01/15 00:34:29;;;;;;;;;0.25;0.25;;;;;6.48;91.22;98260.03;5098742;28;8830;-58
2023/01/15 00:36:57;;;;;;;;;0.50;0.50;;;;;6.46;91.33;98266.41;5098647;28;8852;-58
2023/01/15 00:39:25;;;;;;;;;0.00;0.00;;;;;6.41;91.57;98272.13;5097432;28;8832;-58
2023/01/15 00:41:53;;;;;;;;;0.00;0.00;;;;;6.37;91.41;98276.00;5098719;28;8822;-57
2023/01/15 00:44:21;;;;;;;;;0.25;0.25;;;;;6.33;91.18;98274.63;5098608;28;9727;-56
2023/01/15 00:46:49;;;;;;;;;0.00;0.00;;;;;6.30;91.32;98266.94;5098532;28;8826;-58
2023/01/15 00:49:17;;;;;;;;;0.00;0.00;;;;;6.28;91.83;98262.75;5097935;28;8818;-58
2023/01/15 00:51:44;;;;;;;;;0.60;0.60;;;;;6.26;91.55;98260.28;5098193;28;8854;-58
2023/01/15 00:54:12;;;;;;;;;1.00;0.00;;;;;6.26;91.56;98264.72;5098515;28;8849;-58
2023/01/15 00:56:40;;;;;;;;;0.00;0.00;;;;;6.24;91.39;98282.50;5098116;28;8845;-58
2023/01/15 00:59:08;;;;;;;;;0.00;0.00;;;;;6.22;91.44;98274.72;5097975;28;8837;-57
2023/01/15 01:01:36;;;;;;;;;0.00;0.00;;;;;6.23;91.57;98272.91;5098501;28;9526;-58
2023/01/15 01:04:04;;;;;;;;;1.00;1.00;;;;;6.23;91.51;98271.09;5098461;28;8810;-58
2023/01/15 01:06:32;;;;;;;;;0.00;0.00;;;;;6.23;91.01;98273.75;5098360;28;8830;-58
2023/01/15 01:09:00;;;;;;;;;0.00;0.00;;;;;6.23;91.40;98280.84;5097785;28;8899;-58
2023/01/15 01:11:32;;;;;;;;;0.00;0.00;;;;;6.23;91.23;98281.66;5098012;28;8822;-58
2023/01/15 01:14:01;;;;;;;;;0.00;0.00;;;;;6.24;91.41;98283.38;5098226;28;8834;-58
2023/01/15 01:16:30;;;;;;;;;0.00;0.00;;;;;6.24;90.90;98288.66;5097864;28;8900;-58
2023/01/15 01:18:59;;;;;;;;;0.20;0.20;;;;;6.25;91.12;98294.75;5097876;28;8810;-58
2023/01/15 01:21:26;;;;;;;;;0.00;0.00;;;;;6.26;91.15;98278.78;5097892;28;8841;-59
2023/01/15 01:23:54;;;;;;;;;0.00;0.00;;;;;6.26;91.13;98283.19;5097611;28;8844;-58
2023/01/15 01:26:22;;;;;;;;;0.00;0.00;;;;;6.25;91.21;98277.09;5097418;28;8847;-58
2023/01/15 01:28:50;;;;;;;;;0.00;0.00;;;;;6.25;91.16;98278.91;5097449;28;8813;-58
2023/01/15 01:31:18;;;;;;;;;0.00;0.00;;;;;6.25;90.99;98290.31;5097195;28;8818;-58
2023/01/15 01:33:46;;;;;;;;;0.00;0.00;;;;;6.25;90.97;98285.03;5097424;28;8860;-58
2023/01/15 01:36:14;;;;;;;;;0.00;0.00;;;;;6.25;91.15;98281.53;5097551;28;8848;-58
2023/01/15 01:38:41;;;;;;;;;0.80;0.80;;;;;6.24;91.01;98262.22;5097299;28;8806;-58
2023/01/15 01:41:09;;;;;;;;;0.00;0.00;;;;;6.24;90.81;98259.56;5097669;28;8822;-58
2023/01/15 01:43:37;;;;;;;;;0.00;0.00;;;;;6.21;91.06;98246.63;5097622;28;8822;-58
2023/01/15 01:46:05;;;;;;;;;0.00;0.00;;;;;6.22;90.74;98242.19;5097294;28;8846;-58
2023/01/15 01:48:33;;;;;;;;;0.00;0.00;;;;;6.24;90.16;98241.09;5096754;28;8818;-58
2023/01/15 01:51:01;;;;;;;;;0.00;0.00;;;;;6.29;90.30;98243.31;5097300;28;8845;-58
2023/01/15 01:53:29;;;;;;;;;0.00;0.00;;;;;6.35;90.03;98258.59;5096838;28;8849;-58
2023/01/15 01:55:57;;;;;;;;;0.00;0.00;;;;;6.40;89.64;98257.22;5096843;28;8822;-58
2023/01/15 01:58:25;;;;;;;;;0.80;0.80;;;;;6.43;89.68;98246.38;5096443;28;8864;-57
2023/01/15 02:00:53;;;;;;;;;0.00;0.00;;;;;6.45;89.74;98241.78;5096873;28;8814;-58
2023/01/15 02:03:20;;;;;;;;;0.00;0.00;;;;;6.46;89.12;98237.34;5097003;28;8830;-57
2023/01/15 02:05:48;;;;;;;;;0.00;0.00;;;;;6.46;89.19;98239.97;5097238;28;8810;-58
2023/01/15 02:08:16;;;;;;;;;0.00;0.00;;;;;6.47;89.56;98239.00;5096626;28;8849;-58
2023/01/15 02:10:44;;;;;;;;;0.25;0.25;;;;;6.47;89.08;98244.28;5097047;28;8817;-58
2023/01/15 02:13:11;;;;;;;;;0.00;0.00;;;;;6.47;89.00;98249.56;5097498;28;8822;-59
2023/01/15 02:15:39;;;;;;;;;0.00;0.00;;;;;6.47;88.96;98249.56;5097028;28;9476;-58
2023/01/15 02:18:07;;;;;;;;;0.60;0.00;;;;;6.48;89.02;98253.88;5096982;28;8876;-59
2023/01/15 02:20:35;;;;;;;;;0.00;0.00;;;;;6.47;88.59;98246.94;5096864;28;8849;-59
2023/01/15 02:23:02;;;;;;;;;0.00;0.00;;;;;6.47;88.33;98255.72;5096846;28;8822;-58
2023/01/15 02:25:30;;;;;;;;;0.00;0.00;;;;;6.48;88.95;98240.66;5096887;28;8814;-58
2023/01/15 02:27:57;;;;;;;;;0.00;0.00;;;;;6.50;88.53;98244.00;5096798;28;8869;-59
2023/01/15 02:30:25;;;;;;;;;0.00;0.00;;;;;6.51;88.17;98237.75;5096568;28;8822;-58
2023/01/15 02:32:53;;;;;;;;;0.00;0.00;;;;;6.51;88.46;98233.28;5096933;28;8830;-58
2023/01/15 02:35:21;;;;;;;;;0.00;0.00;;;;;6.52;88.21;98248.19;5096571;28;8819;-58
2023/01/15 02:37:49;;;;;;;;;0.00;0.00;;;;;6.53;88.11;98257.78;5096557;28;8830;-58
2023/01/15 02:40:17;;;;;;;;;0.00;0.00;;;;;6.56;87.93;98240.81;5096563;28;8854;-58
2023/01/15 02:42:44;;;;;;;;;0.00;0.00;;;;;6.59;87.77;98240.56;5096497;28;8852;-58
2023/01/15 02:45:12;;;;;;;;;0.00;0.00;;;;;6.60;87.84;98247.50;5096418;28;8830;-59
2023/01/15 02:47:40;;;;;;;;;0.00;0.00;;;;;6.63;87.26;98244.56;5096374;28;8814;-59
2023/01/15 02:50:07;;;;;;;;;0.00;0.00;;;;;6.64;87.57;98240.94;5096280;28;8834;-59
2023/01/15 02:52:35;;;;;;;;;0.00;0.00;;;;;6.65;87.50;98232.88;5096266;28;8852;-59
2023/01/15 02:55:03;;;;;;;;;0.00;0.00;;;;;6.67;87.09;98224.81;5096385;28;9599;-59
2023/01/15 02:57:31;;;;;;;;;0.00;0.00;;;;;6.67;87.03;98222.16;5096609;28;8891;-58
2023/01/15 02:59:58;;;;;;;;;0.00;0.00;;;;;6.67;87.06;98214.25;5095826;28;8821;-59
2023/01/15 03:02:26;;;;;;;;;0.00;0.00;;;;;6.67;87.03;98233.56;5095936;28;9491;-59
2023/01/15 03:04:54;;;;;;;;;0.00;0.00;;;;;6.66;86.98;98231.91;5095776;28;8794;-59
2023/01/15 03:07:22;;;;;;;;;0.00;0.00;;;;;6.69;86.91;98236.09;5096126;28;8830;-59
2023/01/15 03:09:50;;;;;;;;;0.00;0.00;;;;;6.70;87.10;98227.16;5095962;28;8809;-59
2023/01/15 03:12:18;;;;;;;;;0.00;0.00;;;;;6.70;86.84;98225.38;5096347;28;8818;-58
2023/01/15 03:14:45;;;;;;;;;1.00;0.00;;;;;6.69;86.67;98223.69;5095959;28;8825;-59
2023/01/15 03:17:12;;;;;;;;;0.00;0.00;;;;;6.71;86.78;98212.97;5096151;28;8810;-59
2023/01/15 03:19:39;;;;;;;;;0.00;0.00;;;;;6.70;86.60;98213.94;5095671;28;8826;-58
2023/01/15 03:22:08;;;;;;;;;0.00;0.00;;;;;6.71;86.65;98207.69;5096239;28;8830;-58
2023/01/15 03:24:35;;;;;;;;;0.00;0.00;;;;;6.69;86.57;98197.22;5096417;28;9514;-58
2023/01/15 03:27:03;;;;;;;;;0.00;0.00;;;;;6.69;86.42;98194.59;5095919;28;8825;-59
2023/01/15 03:29:30;;;;;;;;;0.00;0.00;;;;;6.69;86.36;98193.78;5095565;28;8814;-59
2023/01/15 03:31:58;;;;;;;;;0.00;0.00;;;;;6.68;86.47;98200.03;5096090;28;8818;-59
2023/01/15 03:34:26;;;;;;;;;0.00;0.00;;;;;6.67;86.37;98206.31;5096053;28;8814;-59
2023/01/15 03:36:54;;;;;;;;;0.00;0.00;;;;;6.68;85.72;98210.63;5095999;28;8818;-59
2023/01/15 03:39:21;;;;;;;;;0.50;0.50;;;;;6.66;86.28;98210.75;5095868;28;8817;-59
2023/01/15 03:41:49;;;;;;;;;0.00;0.00;;;;;6.67;86.17;98207.13;5096013;28;8923;-59
2023/01/15 03:44:17;;;;;;;;;0.00;0.00;;;;;6.66;86.73;98212.56;5096013;28;8838;-59
2023/01/15 03:46:46;;;;;;;;;0.00;0.00;;;;;6.66;85.98;98205.47;5095917;28;9487;-59
2023/01/15 03:49:13;;;;;;;;;0.00;0.00;;;;;6.67;85.98;98203.66;5094359;28;8810;-59
2023/01/15 03:51:41;;;;;;;;;0.00;0.00;;;;;6.68;85.66;98207.97;5094459;28;8860;-59
2023/01/15 03:54:08;;;;;;;;;0.00;0.00;;;;;6.67;85.83;98206.31;5094724;28;8832;-59
2023/01/15 03:56:36;;;;;;;;;0.00;0.00;;;;;6.68;86.02;98202.69;5094228;28;9741;-59
2023/01/15 03:59:04;;;;;;;;;0.00;0.00;;;;;6.68;86.15;98200.03;5094373;28;8824;-58
2023/01/15 04:01:32;;;;;;;;;0.00;0.00;;;;;6.67;86.32;98207.13;5094975;28;8830;-59
2023/01/15 04:04:00;;;;;;;;;0.00;0.00;;;;;6.67;85.84;98193.91;5095030;28;9574;-58
2023/01/15 04:06:28;;;;;;;;;0.00;0.00;;;;;6.68;85.58;98192.91;5095651;28;9604;-59
2023/01/15 04:08:56;;;;;;;;;0.00;0.00;;;;;6.67;85.55;98196.53;5095572;28;8840;-59
2023/01/15 04:11:24;;;;;;;;;0.00;0.00;;;;;6.69;85.19;98189.28;5095823;28;8956;-59
2023/01/15 04:13:53;;;;;;;;;0.00;0.00;;;;;6.68;84.44;98182.34;5096106;28;8842;-59
2023/01/15 04:16:20;;;;;;;;;0.00;0.00;;;;;6.67;84.82;98177.22;5098757;28;8838;-59
2023/01/15 04:18:48;;;;;;;;;0.00;0.00;;;;;6.66;84.95;98173.72;5098833;28;8829;-59
2023/01/15 04:21:15;;;;;;;;;0.00;0.00;;;;;6.63;84.73;98178.47;5099356;28;9541;-59
2023/01/15 04:23:44;;;;;;;;;1.00;1.00;;;;;6.60;85.23;98202.56;5099141;28;8822;-59
2023/01/15 04:26:12;;;;;;;;;0.00;0.00;;;;;6.58;84.55;98186.81;5099200;28;8810;-59
2023/01/15 04:28:40;;;;;;;;;0.00;0.00;;;;;6.58;85.02;98199.19;5099104;28;8814;-59
2023/01/15 04:31:08;;;;;;;;;0.00;0.00;;;;;6.57;85.01;98197.53;5098875;28;8829;-59
2023/01/15 04:33:35;;;;;;;;;0.00;0.00;;;;;6.56;85.02;98193.22;5099194;28;8834;-59
2023/01/15 04:36:03;;;;;;;;;0.00;0.00;;;;;6.57;85.11;98200.16;5099215;28;8850;-59
2023/01/15 04:38:31;;;;;;;;;0.00;0.00;;;;;6.55;85.42;98188.91;5098837;28;8822;-59
2023/01/15 04:46:41;;;;;;;;;0.20;0.20;;;;;6.59;84.64;98203.53;5017018;28;8834;-59
2023/01/15 04:49:08;;;;;;;;;0.00;0.00;;;;;6.59;85.22;98203.53;5079585;28;8794;-59
2023/01/15 04:51:36;;;;;;;;;0.00;0.00;;;;;6.59;84.87;98207.00;5098737;28;8838;-59
2023/01/15 04:54:04;;;;;;;;;0.00;0.00;;;;;6.60;84.91;98211.31;5098430;28;8798;-59
2023/01/15 04:56:31;;;;;;;;;0.00;0.00;;;;;6.61;84.43;98207.69;5097871;28;8822;-59
2023/01/15 04:59:00;;;;;;;;;0.00;0.00;;;;;6.61;84.26;98206.84;5098330;28;8830;-59
2023/01/15 05:01:27;;;;;;;;;0.00;0.00;;;;;6.62;85.13;98197.94;5098383;28;8841;-59
2023/01/15 05:03:57;;;;;;;;;0.00;0.00;;;;;6.63;84.45;98196.97;5098148;28;8830;-59
2023/01/15 05:06:24;;;;;;;;;0.00;0.00;;;;;6.64;84.51;98196.00;5098061;28;8848;-59
2023/01/15 05:08:52;;;;;;;;;0.00;0.00;;;;;6.64;84.63;98196.00;5098311;28;8830;-59
2023/01/15 05:11:20;;;;;;;;;0.00;0.00;;;;;6.63;84.08;98202.25;5098374;28;8830;-59
2023/01/15 05:13:48;;;;;;;;;0.00;0.00;;;;;6.63;84.64;98212.84;5098428;28;9594;-59
2023/01/15 05:16:16;;;;;;;;;0.00;0.00;;;;;6.63;84.14;98218.97;5098386;28;9459;-59
2023/01/15 05:18:43;;;;;;;;;0.00;0.00;;;;;6.63;84.17;98216.31;5098015;28;8818;-59
2023/01/15 05:21:12;;;;;;;;;0.00;0.00;;;;;6.61;83.67;98215.59;5097922;28;8846;-59
2023/01/15 05:23:40;;;;;;;;;0.00;0.00;;;;;6.61;84.11;98212.97;5098230;28;8822;-59
2023/01/15 05:26:08;;;;;;;;;0.00;0.00;;;;;6.60;84.17;98198.06;5097829;28;8846;-59
2023/01/15 05:28:35;;;;;;;;;0.00;0.00;;;;;6.60;83.87;98202.56;5098031;28;8818;-59
2023/01/15 05:31:03;;;;;;;;;0.00;0.00;;;;;6.60;83.75;98205.19;5097869;28;8826;-59
2023/01/15 05:33:30;;;;;;;;;0.00;0.00;;;;;6.59;84.07;98219.41;5097741;28;8848;-59
2023/01/15 05:36:00;;;;;;;;;0.00;0.00;;;;;6.57;83.73;98218.66;5097482;28;8818;-59
2023/01/15 05:38:27;;;;;;;;;0.00;0.00;;;;;6.56;83.69;98219.66;5097600;28;8826;-59
2023/01/15 05:40:55;;;;;;;;;0.00;0.00;;;;;6.55;83.67;98220.63;5097815;28;8833;-57
2023/01/15 05:43:22;;;;;;;;;0.00;0.00;;;;;6.56;83.63;98223.16;5097316;28;8865;-59
2023/01/15 05:45:50;;;;;;;;;0.00;0.00;;;;;6.56;83.24;98227.59;5097334;28;8798;-60
2023/01/15 05:48:18;;;;;;;;;0.00;0.00;;;;;6.57;83.31;98218.66;5097591;28;8822;-59
2023/01/15 05:50:45;;;;;;;;;0.00;0.00;;;;;6.57;83.54;98230.09;5097718;28;8923;-59
2023/01/15 05:53:13;;;;;;;;;0.00;0.00;;;;;6.57;83.39;98221.31;5097263;28;8924;-59
2023/01/15 05:55:41;;;;;;;;;0.00;0.00;;;;;6.56;83.34;98214.38;5096977;28;8844;-59
2023/01/15 05:58:09;;;;;;;;;0.00;0.00;;;;;6.53;83.52;98215.47;5097358;28;8826;-59
2023/01/15 06:00:37;;;;;;;;;0.00;0.00;;;;;6.55;83.39;98215.34;5097747;28;8822;-58
2023/01/15 06:03:04;;;;;;;;;0.00;0.00;;;;;6.55;83.14;98207.41;5097340;28;8852;-60
2023/01/15 06:05:32;;;;;;;;;0.00;0.00;;;;;6.56;83.02;98209.06;5096955;28;8807;-59
2023/01/15 06:08:00;;;;;;;;;0.00;0.00;;;;;6.56;83.34;98217.00;5097248;28;8858;-59
2023/01/15 06:10:27;;;;;;;;;0.00;0.00;;;;;6.55;82.80;98208.25;5097133;28;8814;-59
2023/01/15 06:12:55;;;;;;;;;0.00;0.00;;;;;6.55;83.33;98213.56;5097288;28;8852;-59
2023/01/15 06:15:23;;;;;;;;;0.00;0.00;;;;;6.56;82.65;98239.00;5096828;28;8814;-60
2023/01/15 06:17:51;;;;;;;;;0.00;0.00;;;;;6.60;82.73;98231.63;5096948;28;8845;-59
2023/01/15 06:20:18;;;;;;;;;0.00;0.00;;;;;6.61;82.63;98228.00;5096419;28;8806;-59
2023/01/15 06:22:46;;;;;;;;;0.00;0.00;;;;;6.62;82.50;98235.81;5096168;28;8833;-59
2023/01/15 06:25:14;;;;;;;;;1.00;0.60;;;;;6.64;82.48;98240.94;5095232;28;8840;-59
2023/01/15 06:27:43;;;;;;;;;0.00;0.00;;;;;6.66;82.59;98260.19;5095478;28;8829;-59
2023/01/15 06:30:11;;;;;;;;;0.00;0.00;;;;;6.69;82.86;98236.09;5095686;28;8916;-59
2023/01/15 06:32:38;;;;;;;;;0.00;0.00;;;;;6.70;82.37;98243.03;5096008;28;9847;-59
2023/01/15 06:35:06;;;;;;;;;0.00;0.00;;;;;6.72;82.36;98241.06;5096240;28;8860;-59
2023/01/15 06:37:34;;;;;;;;;0.00;0.00;;;;;6.72;82.49;98235.78;5095523;28;8799;-58
2023/01/15 06:40:02;;;;;;;;;0.00;0.00;;;;;6.73;82.32;98240.94;5096523;28;8837;-59
2023/01/15 06:48:00;;;;;;;;;0.00;0.00;;;;;6.75;82.45;98244.28;5096692;28;8814;-59
2023/01/15 06:50:28;;;;;;;;;0.00;0.00;;;;;6.75;81.86;98251.41;5096370;28;8838;-59
2023/01/15 06:52:55;;;;;;;;;0.00;0.00;;;;;6.75;81.67;98256.69;5096659;28;8834;-59
2023/01/15 06:55:23;;;;;;;;;0.00;0.00;;;;;6.75;81.66;98259.34;5095964;28;8830;-59
2023/01/15 06:57:52;;;;;;;;;0.00;0.00;;;;;6.75;81.70;98261.97;5095837;28;8825;-59
2023/01/15 07:00:21;;;;;;;;;0.00;0.00;;;;;6.75;81.55;98262.78;5096111;28;8830;-59
2023/01/15 07:02:49;;;;;;;;;0.00;0.00;;;;;6.77;81.75;98266.16;5095559;28;8838;-58
2023/01/15 07:05:17;;;;;;;;;0.00;0.00;;;;;6.77;81.90;98250.28;5095590;28;8834;-59
2023/01/15 07:07:44;;;;;;;;;0.00;0.00;;;;;6.77;81.61;98245.00;5095648;28;8814;-59
2023/01/15 07:10:12;;;;;;;;;0.00;0.00;;;;;6.77;81.11;98245.00;5095638;28;8826;-59
2023/01/15 07:12:40;;;;;;;;;0.00;0.00;;;;;6.64;81.36;98240.94;5095860;28;8822;-58
2023/01/15 07:15:08;;;;;;;;;0.00;0.00;;;;;6.53;81.48;98239.28;5095805;28;8861;-59
2023/01/15 07:17:35;;;;;;;;;0.50;0.00;;;;;6.44;81.92;98237.47;5095745;28;8857;-59
2023/01/15 07:20:03;;;;;;;;;0.00;0.00;;;;;6.38;82.19;98238.00;5095504;28;8845;-58
2023/01/15 07:22:31;;;;;;;;;0.00;0.00;;;;;6.33;82.44;98239.41;5095640;28;8810;-58
2023/01/15 07:24:59;;;;;;;;;0.00;0.00;;;;;6.32;82.23;98235.09;5095520;28;8849;-59
2023/01/15 07:27:27;;;;;;;;;0.00;0.00;;;;;6.32;82.01;98238.59;5095835;28;8871;-58
2023/01/15 07:29:54;;;;;;;;;0.00;0.00;;;;;6.33;82.33;98228.81;5095792;28;8846;-59
2023/01/15 07:32:22;;;;;;;;;0.00;0.00;;;;;6.37;82.70;98240.81;5095420;28;8802;-58
2023/01/15 07:34:49;;;;;;;;;0.00;0.00;;;;;6.41;82.26;98231.63;5095777;28;8923;-59
2023/01/15 07:37:17;;;;;;;;;0.00;0.00;;;;;6.48;82.11;98238.03;5095407;28;8832;-59
2023/01/15 07:39:45;;;;;;;;;0.00;0.00;;;;;6.54;81.71;98233.00;5095307;28;8922;-59
2023/01/15 07:50:28;;;;;;;;;0.00;0.00;;;;;6.70;81.00;98237.75;5099146;28;8830;-59
2023/01/15 07:52:56;;;;;;;;;0.00;0.00;;;;;6.71;81.27;98240.25;5098882;28;8830;-59
2023/01/15 07:55:24;;;;;;;;;0.60;0.00;;;;;6.72;80.70;98246.38;5099063;28;8814;-59
2023/01/15 07:57:52;;;;;;;;;3.00;0.00;;;;;6.74;80.58;98247.09;5099515;28;8838;-59
2023/01/15 08:00:20;;;;;;;;;0.00;0.00;;;;;6.76;80.71;98247.78;5098383;28;8826;-57
2023/01/15 08:02:50;;;;;;;;;0.00;0.00;;;;;6.78;80.62;98277.56;5098987;28;8833;-59
2023/01/15 08:05:17;;;;;;;;;3.00;2.00;;;;;6.81;80.44;98261.44;5098982;28;8830;-56
2023/01/15 08:07:46;;;;;;;;;0.00;0.00;;;;;6.83;80.14;98283.28;5098994;28;8825;-59
2023/01/15 08:10:14;;;;;;;;;0.00;0.00;;;;;6.84;80.23;98271.72;5098585;28;8818;-59
2023/01/15 08:15:27;;;;;;;;;0.00;0.00;;;;;6.86;79.97;98282.97;5099352;28;8837;-59
2023/01/15 08:17:54;;;;;;;;;0.00;0.00;;;;;6.89;79.88;98290.66;5099012;28;8888;-58
2023/01/15 08:20:22;;;;;;;;;0.25;0.00;;;;;6.89;79.83;98280.91;5099281;28;9537;-57
2023/01/15 08:22:50;;;;;;;;;0.00;0.00;;;;;6.91;79.49;98289.50;5098967;28;8879;-58
2023/01/15 08:25:18;;;;;;;;;0.00;0.00;;;;;6.92;79.58;98293.00;5098431;28;8837;-59
2023/01/15 08:27:46;;;;;;;;;0.00;0.00;;;;;6.95;79.50;98306.78;5098257;28;8822;-59
2023/01/15 08:30:13;;;;;;;;;0.00;0.00;;;;;6.97;79.21;98298.72;5097602;28;8834;-59
2023/01/15 08:32:41;;;;;;;;;3.00;3.00;;;;;7.02;79.25;98312.34;5097526;28;8895;-58
2023/01/15 08:35:09;;;;;;;;;0.00;0.00;;;;;7.05;79.40;98312.91;5097930;28;8845;-58
2023/01/15 08:37:37;;;;;;;;;0.00;0.00;;;;;7.08;79.47;98303.88;5098063;28;8858;-58
2023/01/15 08:40:05;;;;;;;;;0.50;0.25;;;;;7.10;78.82;98301.91;5098146;28;8822;-57
2023/01/15 08:42:32;;;;;;;;;0.00;0.00;;;;;7.10;78.65;98310.69;5098198;28;9518;-58
2023/01/15 08:45:01;;;;;;;;;1.00;0.00;;;;;7.10;78.64;98315.13;5097863;28;8841;-59
2023/01/15 08:47:30;;;;;;;;;0.00;0.00;;;;;7.11;78.01;98322.94;5097854;28;8869;-57
2023/01/15 08:49:58;;;;;;;;;0.00;0.00;;;;;7.11;78.60;98320.28;5097698;28;9547;-58
2023/01/15 08:52:26;;;;;;;;;0.00;0.00;;;;;7.12;78.46;98313.22;5097701;28;8848;-58
2023/01/15 08:54:53;;;;;;;;;0.00;0.00;;;;;7.13;78.20;98312.22;5098247;28;8870;-59
2023/01/15 08:57:22;;;;;;;;;0.00;0.00;;;;;7.14;77.71;98313.88;5098549;28;8904;-59
2023/01/15 08:59:49;;;;;;;;;0.50;0.50;;;;;7.10;78.15;98326.56;5097665;28;8825;-59
2023/01/15 09:02:17;;;;;;;;;0.00;0.00;;;;;6.97;78.32;98319.91;5096654;28;8857;-59
2023/01/15 09:04:45;;;;;;;;;0.50;0.50;;;;;6.87;78.53;98322.53;5078027;28;8990;-58
2023/01/15 09:07:13;;;;;;;;;0.00;0.00;;;;;6.84;78.54;98320.16;5077898;28;8921;-58
2023/01/15 09:09:41;;;;;;;;;2.20;0.60;;;;;6.86;78.32;98325.31;5077770;28;8843;-59
2023/01/15 09:12:09;;;;;;;;;0.00;0.00;;;;;6.89;78.60;98339.09;5077577;28;8832;-59
2023/01/15 09:14:37;;;;;;;;;2.00;0.50;;;;;6.93;78.12;98344.94;5096495;28;8835;-59
2023/01/15 09:17:25;;;;;;;;;0.00;0.00;;;;;6.95;78.21;98337.69;5097811;28;8849;-57
2023/01/15 09:19:53;;;;;;;;;0.00;0.00;;;;;6.97;78.26;98346.34;5097706;28;8883;-59
2023/01/15 09:22:21;;;;;;;;;0.50;0.50;;;;;6.98;78.37;98343.53;5097532;28;8837;-59
2023/01/15 09:24:49;;;;;;;;;1.00;1.00;;;;;6.98;78.09;98348.84;5076995;28;9528;-58
2023/01/15 09:27:17;;;;;;;;;0.00;0.00;;;;;7.01;78.44;98350.38;5084448;28;8830;-57
2023/01/15 09:29:45;;;;;;;;;0.25;0.00;;;;;7.03;77.79;98362.50;5097029;28;8907;-56
2023/01/15 09:32:13;;;;;;;;;0.00;0.00;;;;;7.03;77.87;98367.78;5096905;28;8826;-57
2023/01/15 09:34:41;;;;;;;;;0.00;0.00;;;;;7.03;77.73;98365.16;5096755;28;8852;-58
2023/01/15 09:37:09;;;;;;;;;0.00;0.00;;;;;7.03;77.90;98369.59;5096789;28;8899;-59
2023/01/15 09:39:37;;;;;;;;;0.00;0.00;;;;;7.01;77.42;98360.97;5096972;28;8849;-59
2023/01/15 09:42:07;;;;;;;;;0.00;0.00;;;;;6.95;77.35;98358.88;5097023;28;9483;-59
2023/01/15 09:44:35;;;;;;;;;0.00;0.00;;;;;6.88;76.99;98348.00;5095751;28;9417;-58
2023/01/15 09:47:03;;;;;;;;;0.00;0.00;;;;;6.84;77.35;98353.72;5096848;28;8849;-58
2023/01/15 09:49:31;;;;;;;;;0.00;0.00;;;;;6.77;77.24;98364.03;5096571;28;8849;-56
2023/01/15 09:51:59;;;;;;;;;0.00;0.00;;;;;6.75;76.98;98360.66;5096065;28;8854;-56
2023/01/15 09:54:27;;;;;;;;;0.00;0.00;;;;;6.72;76.95;98357.44;5095225;28;8831;-59
2023/01/15 09:56:55;;;;;;;;;1.00;1.00;;;;;6.72;77.17;98354.81;5094577;28;8817;-55
2023/01/15 09:59:23;;;;;;;;;0.60;0.60;;;;;6.82;76.41;98350.38;5094982;28;8857;-56
2023/01/15 10:01:51;;;;;;;;;0.00;0.00;;;;;7.01;75.80;98350.38;5094873;28;9613;-58
2023/01/15 10:04:19;;;;;;;;;0.00;0.00;;;;;7.16;75.65;98349.00;5075088;28;8836;-59
2023/01/15 10:06:47;;;;;;;;;0.00;0.00;;;;;7.28;75.75;98350.53;5077115;28;9490;-59
2023/01/15 10:09:15;;;;;;;;;0.00;0.00;;;;;7.50;75.01;98339.63;5095485;28;8842;-58
2023/01/15 10:14:29;;;;;;;;;0.00;0.00;;;;;7.80;73.72;98338.44;5095384;28;8919;-58
2023/01/15 10:16:57;;;;;;;;;0.00;0.00;;;;;7.87;73.26;98320.13;5095355;28;9537;-59
2023/01/15 10:19:26;;;;;;;;;0.00;0.00;;;;;7.93;72.89;98343.41;5095799;28;8842;-58
2023/01/15 10:22:10;;;;;;;;;0.50;0.00;;;;;8.28;71.96;98330.31;5095699;28;8861;-59
2023/01/15 10:24:38;;;;;;;;;0.00;0.00;;;;;8.90;70.90;98315.22;5095788;28;8825;-56
2023/01/15 10:27:06;;;;;;;;;0.25;0.25;;;;;9.20;69.12;98327.31;5096098;28;8810;-59
2023/01/15 10:29:35;;;;;;;;;0.00;0.00;;;;;8.92;70.19;98329.22;5095849;28;8972;-59
2023/01/15 10:32:03;;;;;;;;;0.00;0.00;;;;;8.57;71.06;98329.16;5094870;28;8846;-57
2023/01/15 10:34:31;;;;;;;;;0.00;0.00;;;;;8.34;71.18;98325.25;5095424;28;8869;-58
2023/01/15 10:36:59;;;;;;;;;0.00;0.00;;;;;8.23;71.24;98346.69;5095098;28;8838;-58
2023/01/15 10:39:27;;;;;;;;;0.00;0.00;;;;;8.12;71.46;98349.47;5095236;28;8845;-59
2023/01/15 10:41:56;;;;;;;;;0.00;0.00;;;;;8.08;71.81;98353.41;5095512;28;9487;-59
2023/01/15 10:44:24;;;;;;;;;0.00;0.00;;;;;8.25;71.63;98344.72;5096018;28;8830;-58
2023/01/15 10:46:52;;;;;;;;;0.00;0.00;;;;;8.38;70.82;98341.72;5095840;28;8834;-57
2023/01/15 10:49:22;;;;;;;;;0.00;0.00;;;;;8.43;70.87;98352.72;5095726;28;8822;-58
2023/01/15 10:51:51;;;;;;;;;0.00;0.00;;;;;8.51;70.79;98355.47;5095912;28;8846;-59
2023/01/15 10:54:20;;;;;;;;;0.00;0.00;;;;;8.32;70.72;98359.06;5095124;28;8849;-58
2023/01/15 10:56:48;;;;;;;;;0.00;0.00;;;;;8.13;71.68;98355.63;5095346;28;8960;-56
2023/01/15 10:59:16;;;;;;;;;0.00;0.00;;;;;7.98;72.11;98354.41;5094786;28;8822;-57
2023/01/15 11:01:44;;;;;;;;;0.00;0.00;;;;;7.88;71.52;98351.78;5094556;28;8979;-57
2023/01/15 11:04:13;;;;;;;;;0.00;0.00;;;;;7.85;72.34;98346.75;5093087;28;8857;-58
2023/01/15 11:06:41;;;;;;;;;0.00;0.00;;;;;8.27;71.29;98356.00;5093401;28;8838;-58
2023/01/15 11:09:09;;;;;;;;;0.00;0.00;;;;;8.55;70.44;98338.25;5093011;28;8818;-57
2023/01/15 11:19:35;;;;;;;;;0.00;0.00;;;;;8.45;70.22;98340.94;5093596;28;8844;-59
2023/01/15 11:20:03;;;;;;;;;0.00;0.00;;;;;8.32;70.53;98340.50;5092329;28;8842;-58
2023/01/15 11:22:31;;;;;;;;;0.25;0.25;;;;;8.20;70.54;98346.94;5093045;28;8814;-57
2023/01/15 11:24:59;;;;;;;;;0.00;0.00;;;;;8.12;70.86;98346.81;5094976;28;8830;-60
2023/01/15 11:27:28;;;;;;;;;0.00;0.00;;;;;8.23;70.02;98341.38;5096926;28;8818;-59
2023/01/15 11:29:56;;;;;;;;;0.00;0.00;;;;;8.18;70.40;98345.38;5097608;28;8846;-57
2023/01/15 11:32:26;;;;;;;;;0.00;0.00;;;;;8.09;70.22;98344.47;5098897;28;8918;-56
2023/01/15 11:34:55;;;;;;;;;0.50;0.00;;;;;8.40;69.66;98334.44;5098482;28;8849;-57
2023/01/15 11:37:23;;;;;;;;;0.00;0.00;;;;;8.52;69.04;98336.72;5098378;28;8830;-58
2023/01/15 11:39:52;;;;;;;;;0.00;0.00;;;;;8.42;69.49;98333.31;5098594;28;8876;-57
2023/01/15 11:50:45;;;;;;;;;0.00;0.00;;;;;8.05;70.38;98344.91;5099107;28;8846;-59
2023/01/15 11:53:13;;;;;;;;;1.00;1.00;;;;;8.01;70.15;98351.47;5098678;28;8835;-59
2023/01/15 11:55:41;;;;;;;;;0.00;0.00;;;;;7.95;69.91;98358.19;5097929;28;8822;-57
2023/01/15 11:58:09;;;;;;;;;0.00;0.00;;;;;7.90;70.09;98349.81;5098345;28;8889;-59
2023/01/15 12:00:37;;;;;;;;;0.00;0.00;;;;;7.88;69.90;98357.09;5098384;28;8829;-60
2023/01/15 12:03:05;;;;;;;;;0.00;0.00;;;;;7.88;69.61;98346.50;5097520;28;8825;-59
2023/01/15 12:05:33;;;;;;;;;0.00;0.00;;;;;7.88;69.76;98341.19;5097110;28;8830;-58
2023/01/15 12:08:01;;;;;;;;;0.00;0.00;;;;;7.88;69.40;98346.50;5098257;28;8822;-57
2023/01/15 12:13:17;;;;;;;;;0.00;0.00;;;;;7.90;69.62;98344.53;5097498;28;9000;-59
2023/01/15 12:15:50;;;;;;;;;0.00;0.00;;;;;7.93;69.40;98346.06;5098002;28;8946;-59
2023/01/15 12:18:18;;;;;;;;;0.50;0.00;;;;;7.92;69.66;98345.22;5097990;28;8849;-59
2023/01/15 12:20:46;;;;;;;;;0.00;0.00;;;;;7.94;69.54;98340.63;5097555;28;8862;-58
2023/01/15 12:23:14;;;;;;;;;0.00;0.00;;;;;7.92;69.59;98339.91;5097392;28;8919;-57
2023/01/15 12:25:42;;;;;;;;;0.00;0.00;;;;;7.90;69.70;98338.41;5097498;28;8818;-56
2023/01/15 12:28:10;;;;;;;;;0.00;0.00;;;;;7.87;69.73;98336.88;5096760;28;8834;-59
2023/01/15 12:30:38;;;;;;;;;0.00;0.00;;;;;7.85;69.35;98346.75;5096516;28;8814;-60
2023/01/15 12:33:06;;;;;;;;;0.00;0.00;;;;;7.81;69.24;98345.41;5096289;28;8829;-59
2023/01/15 12:35:34;;;;;;;;;0.00;0.00;;;;;7.79;69.04;98351.81;5094543;28;8845;-59
2023/01/15 12:38:04;;;;;;;;;0.25;0.00;;;;;7.78;69.46;98360.75;5096274;28;8830;-59
2023/01/15 12:40:32;;;;;;;;;0.00;0.00;;;;;7.77;69.19;98329.94;5095956;28;8852;-57
2023/01/15 12:45:45;;;;;;;;;0.00;0.00;;;;;7.80;68.67;98313.75;5096482;28;8825;-58